DONNELLS (DON)

Elevation: 4835' · STANISLAUS R basin · Operator: US Bureau of Reclamation

Provisional data, subject to change.
Query executed Saturday at 6:18:21   clock

Select a sensor type for a plot of data.
Note: Reservoir Flows are daily averages.

Earlier

Date STORAGE    RES CHG    OUTFLOW   
 AF   AF   CFS  
01/01/2015 22284 -268 219
01/02/2015 22062 -222 187
01/03/2015 21929 -133 142
01/04/2015 21840 -89 135
01/05/2015 21652 -188 197
01/06/2015 21349 -303 247
01/07/2015 21173 -176 183
01/08/2015 20836 -337 270
01/09/2015 20471 -365 298
01/10/2015 20126 -345 182
01/11/2015 19794 -332 275
01/12/2015 19632 -162 173
01/13/2015 19347 -285 256
01/14/2015 19016 -331 247
01/15/2015 18587 -429 311
01/16/2015 18115 -472 314
01/17/2015 17873 -242 210
01/18/2015 17539 -334 269
01/19/2015 17237 -302 251
01/20/2015 16859 -378 275
01/21/2015 16548 -311 250
01/22/2015 16199 -349 293
01/23/2015 15829 -370 259
01/24/2015 15586 -243 203
01/25/2015 15425 -161 171
01/26/2015 15008 -417 313
01/27/2015 14633 -375 302
01/28/2015 14290 -343 274
01/29/2015 13888 -402 306
01/30/2015 13396 -492 338
01/31/2015 -- -- --

Later | Latest

Warning! This data is preliminary and subject to revision.

Show DON Map | Plot DON Data | 1 Month DON Data | Real-Time DON Data | DON Info